createdAt,value
2019-02-22T00:00:50.282Z,9.40
2019-02-22T00:01:50.199Z,9.39
2019-02-22T00:02:50.113Z,9.39
2019-02-22T00:03:50.031Z,9.37
2019-02-22T00:04:49.948Z,9.34
2019-02-22T00:05:49.866Z,9.39
2019-02-22T00:06:49.785Z,9.37
2019-02-22T00:07:49.695Z,9.41
2019-02-22T00:08:49.615Z,9.46
2019-02-22T00:09:49.946Z,9.32
2019-02-22T00:10:49.451Z,9.41
2019-02-22T00:11:49.363Z,9.32
2019-02-22T00:12:49.278Z,9.36
2019-02-22T00:13:49.196Z,9.39
2019-02-22T00:14:49.114Z,9.34
2019-02-22T00:15:49.032Z,9.36
2019-02-22T00:16:48.949Z,9.32
2019-02-22T00:17:48.862Z,9.36
2019-02-22T00:18:48.780Z,9.39
2019-02-22T00:19:48.819Z,9.31
2019-02-22T00:20:48.613Z,9.40
2019-02-22T00:21:48.531Z,9.39
2019-02-22T00:22:48.447Z,9.31
2019-02-22T00:23:48.362Z,9.41
2019-02-22T00:24:48.278Z,9.39
2019-02-22T00:25:48.196Z,9.34
2019-02-22T00:26:48.112Z,9.36
2019-02-22T00:27:48.028Z,9.50
2019-02-22T00:28:47.943Z,9.40
2019-02-22T00:29:47.861Z,9.37
2019-02-22T00:30:47.776Z,9.54
2019-02-22T00:31:47.693Z,9.46
2019-02-22T00:32:47.611Z,9.46
2019-02-22T00:33:47.528Z,9.44
2019-02-22T00:34:47.500Z,9.48
2019-02-22T00:35:47.417Z,9.48
2019-02-22T00:36:47.295Z,9.48
2019-02-22T00:37:47.199Z,9.44
2019-02-22T00:38:47.110Z,9.47
2019-02-22T00:39:47.029Z,9.48
2019-02-22T00:40:46.951Z,9.50
2019-02-22T00:41:46.862Z,9.59
2019-02-22T00:42:46.779Z,9.56
2019-02-22T00:43:46.692Z,9.62
2019-02-22T00:44:46.611Z,9.59
2019-02-22T00:45:46.526Z,9.65
2019-02-22T00:46:46.459Z,9.59
2019-02-22T00:47:46.355Z,9.54
2019-02-22T00:48:46.276Z,9.40
2019-02-22T00:49:46.195Z,9.54
2019-02-22T00:50:46.109Z,9.48
2019-02-22T00:51:46.026Z,9.48
2019-02-22T00:52:45.945Z,9.48
2019-02-22T00:53:45.861Z,9.44
2019-02-22T00:54:45.774Z,9.39
2019-02-22T00:55:45.691Z,9.46
2019-02-22T00:56:45.613Z,9.51
2019-02-22T00:57:45.529Z,9.48
2019-02-22T00:58:45.443Z,9.44
2019-02-22T00:59:45.359Z,9.44
2019-02-22T01:00:45.275Z,9.46
2019-02-22T01:01:45.193Z,9.43
2019-02-22T01:02:45.109Z,9.51
2019-02-22T01:03:45.030Z,9.46
2019-02-22T01:04:44.941Z,9.54
2019-02-22T01:05:44.862Z,9.46
2019-02-22T01:06:44.778Z,9.46
2019-02-22T01:07:44.696Z,9.46
2019-02-22T01:08:44.607Z,9.55
2019-02-22T01:09:44.520Z,9.51
2019-02-22T01:10:44.440Z,9.61
2019-02-22T01:11:44.355Z,9.58
2019-02-22T01:12:44.276Z,9.61
2019-02-22T01:13:44.191Z,9.61
2019-02-22T01:14:44.110Z,9.66
2019-02-22T01:15:44.027Z,9.66
2019-02-22T01:16:43.941Z,9.64
2019-02-22T01:17:43.859Z,9.69
2019-02-22T01:18:43.774Z,9.68
2019-02-22T01:19:43.698Z,9.65
2019-02-22T01:20:53.742Z,9.69
2019-02-22T01:21:43.523Z,9.64
2019-02-22T01:22:43.442Z,9.66
2019-02-22T01:23:43.370Z,9.55
2019-02-22T01:24:43.272Z,9.65
2019-02-22T01:25:43.192Z,9.68
2019-02-22T01:26:43.109Z,9.65
2019-02-22T01:27:43.026Z,9.65
2019-02-22T01:28:42.943Z,9.65
2019-02-22T01:29:42.859Z,9.61
2019-02-22T01:30:42.774Z,9.65
2019-02-22T01:31:42.705Z,9.65
2019-02-22T01:32:42.607Z,9.69
2019-02-22T01:33:42.523Z,9.65
2019-02-22T01:34:42.446Z,9.65
2019-02-22T01:35:42.356Z,9.62
2019-02-22T01:36:42.272Z,9.64
2019-02-22T01:37:42.189Z,9.51
2019-02-22T01:38:42.107Z,9.65
2019-02-22T01:39:42.021Z,9.66
2019-02-22T01:40:43.963Z,9.64
2019-02-22T01:41:41.860Z,9.69
2019-02-22T01:42:41.771Z,9.66
2019-02-22T01:43:41.689Z,9.62
2019-02-22T01:44:41.605Z,9.66
2019-02-22T01:45:41.527Z,9.69
2019-02-22T01:46:41.436Z,9.69
2019-02-22T01:47:41.383Z,9.61
2019-02-22T01:48:41.273Z,9.66
2019-02-22T01:49:41.192Z,9.61
2019-02-22T01:50:41.109Z,9.65
2019-02-22T01:51:41.017Z,9.59
2019-02-22T01:52:40.969Z,9.66
2019-02-22T01:53:40.850Z,9.62
2019-02-22T01:54:40.768Z,9.68
2019-02-22T01:55:40.683Z,9.65
2019-02-22T01:56:40.600Z,9.62
2019-02-22T01:57:40.523Z,9.68
2019-02-22T01:58:48.384Z,9.69
2019-02-22T01:59:40.347Z,9.64
2019-02-22T02:00:40.263Z,9.72
2019-02-22T02:01:40.184Z,9.69
2019-02-22T02:02:40.099Z,9.62
2019-02-22T02:03:40.014Z,9.66
2019-02-22T02:04:39.939Z,9.65
2019-02-22T02:05:39.846Z,9.76
2019-02-22T02:06:39.764Z,9.76
2019-02-22T02:07:39.679Z,9.76
2019-02-22T02:08:39.596Z,9.76
2019-02-22T02:09:39.514Z,9.74
2019-02-22T02:10:39.432Z,9.72
2019-02-22T02:11:39.347Z,9.77
2019-02-22T02:12:39.263Z,9.77
2019-02-22T02:13:39.181Z,9.77
2019-02-22T02:14:39.093Z,9.80
2019-02-22T02:15:39.006Z,9.83
2019-02-22T02:16:38.924Z,9.82
2019-02-22T02:17:38.844Z,9.79
2019-02-22T02:18:38.781Z,9.87
2019-02-22T02:19:38.675Z,9.82
2019-02-22T02:20:38.596Z,9.84
2019-02-22T02:21:38.513Z,9.80
2019-02-22T02:22:38.426Z,9.80
2019-02-22T02:23:38.341Z,9.83
2019-02-22T02:24:38.257Z,9.82
2019-02-22T02:25:38.173Z,9.84
2019-02-22T02:26:38.091Z,9.89
2019-02-22T02:27:38.004Z,9.86
2019-02-22T02:28:37.924Z,9.83
2019-02-22T02:29:37.842Z,9.89
2019-02-22T02:30:37.754Z,9.89
2019-02-22T02:31:37.671Z,9.91
2019-02-22T02:32:37.586Z,9.98
2019-02-22T02:33:37.503Z,9.91
2019-02-22T02:34:37.420Z,9.89
2019-02-22T02:35:37.336Z,9.92
2019-02-22T02:36:37.253Z,9.94
2019-02-22T02:37:37.166Z,9.92
2019-02-22T02:38:37.098Z,9.94
2019-02-22T02:39:37.005Z,9.94
2019-02-22T02:40:36.920Z,9.94
2019-02-22T02:41:36.833Z,9.92
2019-02-22T02:42:36.759Z,9.95
2019-02-22T02:43:36.667Z,9.95
2019-02-22T02:44:36.581Z,9.98
2019-02-22T02:45:36.499Z,9.97
2019-02-22T02:46:36.416Z,9.94
2019-02-22T02:47:36.332Z,9.86
2019-02-22T02:48:36.245Z,9.94
2019-02-22T02:49:36.164Z,9.97
2019-02-22T02:50:36.079Z,9.87
2019-02-22T02:51:35.996Z,9.98
2019-02-22T02:52:35.911Z,9.89
2019-02-22T02:53:35.827Z,9.89
2019-02-22T02:54:35.744Z,9.84
2019-02-22T02:55:35.661Z,9.87
2019-02-22T02:56:35.579Z,9.95
2019-02-22T02:57:35.493Z,9.98
2019-02-22T02:58:35.412Z,9.86
2019-02-22T02:59:35.325Z,9.97
2019-02-22T03:00:35.241Z,9.87
2019-02-22T03:01:35.156Z,9.94
2019-02-22T03:02:35.075Z,9.86
2019-02-22T03:03:34.988Z,9.83
2019-02-22T03:04:34.904Z,9.74
2019-02-22T03:05:34.823Z,9.69
2019-02-22T03:06:34.739Z,9.73
2019-02-22T03:07:34.652Z,9.72
2019-02-22T03:08:34.614Z,9.76
2019-02-22T03:09:34.487Z,9.73
2019-02-22T03:10:34.406Z,9.74
2019-02-22T03:11:34.315Z,9.73
2019-02-22T03:12:34.239Z,9.66
2019-02-22T03:13:34.201Z,9.76
2019-02-22T03:14:34.068Z,9.69
2019-02-22T03:15:33.982Z,9.62
2019-02-22T03:16:33.909Z,9.62
2019-02-22T03:17:33.809Z,9.76
2019-02-22T03:18:33.731Z,9.66
2019-02-22T03:19:33.647Z,9.64
2019-02-22T03:20:33.562Z,9.68
2019-02-22T03:21:33.480Z,9.64
2019-02-22T03:22:33.398Z,9.72
2019-02-22T03:23:33.308Z,9.65
2019-02-22T03:24:33.226Z,9.64
2019-02-22T03:25:33.155Z,9.66
2019-02-22T03:26:33.058Z,9.66
2019-02-22T03:27:32.977Z,9.68
2019-02-22T03:28:32.893Z,9.66
2019-02-22T03:29:32.814Z,9.62
2019-02-22T03:30:32.730Z,9.66
2019-02-22T03:31:32.649Z,9.59
2019-02-22T03:32:32.556Z,9.64
2019-02-22T03:33:32.484Z,9.62
2019-02-22T03:34:32.398Z,9.59
2019-02-22T03:35:32.301Z,9.61
2019-02-22T03:36:32.221Z,9.62
2019-02-22T03:37:32.137Z,9.61
2019-02-22T03:38:32.057Z,9.68
2019-02-22T03:39:31.966Z,9.61
2019-02-22T03:40:31.879Z,9.59
2019-02-22T03:41:33.240Z,9.55
2019-02-22T03:42:31.715Z,9.61
2019-02-22T03:43:31.630Z,9.61
2019-02-22T03:44:31.548Z,9.59
2019-02-22T03:45:31.465Z,9.62
2019-02-22T03:46:31.388Z,9.48
2019-02-22T03:47:31.296Z,9.50
2019-02-22T03:48:31.204Z,9.51
2019-02-22T03:49:31.130Z,9.50
2019-02-22T03:50:31.048Z,9.55
2019-02-22T03:51:30.965Z,9.47
2019-02-22T03:52:30.880Z,9.47
2019-02-22T03:53:30.794Z,9.40
2019-02-22T03:54:30.715Z,9.43
2019-02-22T03:55:30.627Z,9.48
2019-02-22T03:56:30.542Z,9.50
2019-02-22T03:57:30.461Z,9.50
2019-02-22T03:58:30.376Z,9.50
2019-02-22T03:59:30.289Z,9.47
2019-02-22T04:00:30.215Z,9.37
2019-02-22T04:01:30.131Z,9.36
2019-02-22T04:02:30.043Z,9.34
2019-02-22T04:03:29.958Z,9.48
2019-02-22T04:04:29.869Z,9.41
2019-02-22T04:05:29.786Z,9.37
2019-02-22T04:06:29.701Z,9.34
2019-02-22T04:07:29.615Z,9.37
2019-02-22T04:08:29.533Z,9.44
2019-02-22T04:09:29.449Z,9.37
2019-02-22T04:10:29.369Z,9.36
2019-02-22T04:11:29.280Z,9.34
2019-02-22T04:12:29.198Z,9.34
2019-02-22T04:13:29.182Z,9.47
2019-02-22T04:14:29.031Z,9.37
2019-02-22T04:15:28.945Z,9.47
2019-02-22T04:16:28.864Z,9.44
2019-02-22T04:17:28.778Z,9.36
2019-02-22T04:18:28.694Z,9.36
2019-02-22T04:19:28.609Z,9.34
2019-02-22T04:20:28.524Z,9.47
2019-02-22T04:21:28.449Z,9.46
2019-02-22T04:22:28.355Z,9.48
2019-02-22T04:23:28.280Z,9.37
2019-02-22T04:24:28.189Z,9.36
2019-02-22T04:25:28.104Z,9.32
2019-02-22T04:27:59.530Z,9.34
2019-02-22T04:28:59.428Z,9.41
2019-02-22T04:31:03.229Z,9.44
2019-02-22T04:32:03.138Z,9.44
2019-02-22T04:34:06.945Z,9.39
2019-02-22T04:35:06.846Z,9.44
2019-02-22T04:37:10.649Z,9.31
2019-02-22T04:38:10.554Z,9.36
2019-02-22T04:40:14.349Z,9.28
2019-02-22T04:41:14.260Z,9.32
2019-02-22T04:43:18.068Z,9.39
2019-02-22T04:44:17.971Z,9.39
2019-02-22T04:46:21.767Z,9.34
2019-02-22T04:47:21.680Z,9.34
2019-02-22T04:49:25.492Z,9.29
2019-02-22T04:50:25.398Z,9.34
2019-02-22T04:51:25.310Z,9.36
2019-02-22T04:52:25.228Z,9.34
2019-02-22T04:53:25.141Z,9.36
2019-02-22T04:54:25.059Z,9.36
2019-02-22T04:55:24.976Z,9.29
2019-02-22T04:56:24.893Z,9.39
2019-02-22T04:57:24.811Z,9.39
2019-02-22T04:58:24.720Z,9.47
2019-02-22T04:59:24.637Z,9.44
2019-02-22T05:00:24.555Z,9.43
2019-02-22T05:01:24.468Z,9.47
2019-02-22T05:02:24.384Z,9.37
2019-02-22T05:03:24.300Z,9.40
2019-02-22T05:04:24.214Z,9.29
2019-02-22T05:05:24.162Z,9.37
2019-02-22T05:06:24.048Z,9.41
2019-02-22T05:07:23.966Z,9.37
2019-02-22T05:08:23.881Z,9.43
2019-02-22T05:09:23.795Z,9.48
2019-02-22T05:10:23.712Z,9.43
2019-02-22T05:11:23.627Z,9.43
2019-02-22T05:12:23.545Z,9.51
2019-02-22T05:13:23.459Z,9.54
2019-02-22T05:14:23.376Z,9.47
2019-02-22T05:15:23.291Z,9.56
2019-02-22T05:16:23.207Z,9.48
2019-02-22T05:17:23.130Z,9.48
2019-02-22T05:18:23.041Z,9.50
2019-02-22T05:19:22.955Z,9.47
2019-02-22T05:20:22.871Z,9.43
2019-02-22T05:21:22.802Z,9.47
2019-02-22T05:22:22.705Z,9.46
2019-02-22T05:23:22.619Z,9.46
2019-02-22T05:24:22.534Z,9.43
2019-02-22T05:25:22.450Z,9.48
2019-02-22T05:26:22.372Z,9.55
2019-02-22T05:27:22.282Z,9.54
2019-02-22T05:28:22.199Z,9.51
2019-02-22T05:29:22.112Z,9.54
2019-02-22T05:30:22.032Z,9.56
2019-02-22T05:31:21.946Z,9.51
2019-02-22T05:32:21.862Z,9.56
2019-02-22T05:33:21.780Z,9.56
2019-02-22T05:34:21.699Z,9.62
2019-02-22T05:35:21.612Z,9.59
2019-02-22T05:36:21.526Z,9.56
2019-02-22T05:37:21.445Z,9.66
2019-02-22T05:38:21.361Z,9.65
2019-02-22T05:39:21.277Z,9.62
2019-02-22T05:40:21.193Z,9.64
2019-02-22T05:41:21.111Z,9.54
2019-02-22T05:42:23.184Z,9.64
2019-02-22T05:43:20.941Z,9.62
2019-02-22T05:44:20.857Z,9.64
2019-02-22T05:45:20.775Z,9.65
2019-02-22T05:46:20.685Z,9.64
2019-02-22T05:47:20.606Z,9.68
2019-02-22T05:48:20.524Z,9.64
2019-02-22T05:49:22.323Z,9.65
2019-02-22T05:50:20.355Z,9.64
2019-02-22T05:51:20.269Z,9.69
2019-02-22T05:52:20.223Z,9.69
2019-02-22T05:53:20.106Z,9.65
2019-02-22T05:54:20.020Z,9.64
2019-02-22T05:55:19.935Z,9.66
2019-02-22T05:56:19.851Z,9.69
2019-02-22T05:57:19.772Z,9.72
2019-02-22T05:58:19.685Z,9.65
2019-02-22T05:59:19.605Z,9.68
2019-02-22T06:00:19.517Z,9.69
2019-02-22T06:01:19.440Z,9.65
2019-02-22T06:02:19.355Z,9.68
2019-02-22T06:03:19.267Z,9.65
2019-02-22T06:04:19.178Z,9.74
2019-02-22T06:05:19.098Z,9.77
2019-02-22T06:06:19.023Z,9.72
2019-02-22T06:07:18.945Z,9.76
2019-02-22T06:08:18.863Z,9.73
2019-02-22T06:09:18.769Z,9.80
2019-02-22T06:10:18.682Z,9.74
2019-02-22T06:11:18.601Z,9.77
2019-02-22T06:12:18.770Z,9.77
2019-02-22T06:13:18.429Z,9.73
2019-02-22T06:14:18.348Z,9.83
2019-02-22T06:15:18.270Z,9.79
2019-02-22T06:16:18.182Z,9.83
2019-02-22T06:17:18.097Z,9.84
2019-02-22T06:18:18.015Z,9.80
2019-02-22T06:19:17.929Z,9.84
2019-02-22T06:20:17.857Z,9.82
2019-02-22T06:21:17.763Z,9.87
2019-02-22T06:22:28.788Z,9.86
2019-02-22T06:23:17.597Z,9.80
2019-02-22T06:24:17.516Z,9.82
2019-02-22T06:25:17.432Z,9.84
2019-02-22T06:26:17.350Z,9.82
2019-02-22T06:27:17.262Z,9.83
2019-02-22T06:28:17.181Z,9.83
2019-02-22T06:29:17.093Z,9.84
2019-02-22T06:30:17.022Z,9.84
2019-02-22T06:31:16.933Z,9.84
2019-02-22T06:32:16.847Z,9.80
2019-02-22T06:33:16.764Z,9.77
2019-02-22T06:34:16.680Z,9.82
2019-02-22T06:35:16.599Z,9.73
2019-02-22T06:36:16.514Z,9.83
2019-02-22T06:37:16.432Z,9.86
2019-02-22T06:38:16.350Z,9.84
2019-02-22T06:39:16.266Z,9.82
2019-02-22T06:40:16.180Z,9.83
2019-02-22T06:41:16.103Z,9.76
2019-02-22T06:42:16.014Z,9.76
2019-02-22T06:43:15.933Z,9.76
2019-02-22T06:44:15.848Z,9.77
2019-02-22T06:45:15.771Z,9.73
2019-02-22T06:46:15.683Z,9.77
2019-02-22T06:47:15.600Z,9.73
2019-02-22T06:48:15.514Z,9.77
2019-02-22T06:49:15.433Z,9.77
2019-02-22T06:50:15.353Z,9.77
2019-02-22T06:51:15.270Z,9.74
2019-02-22T06:52:15.186Z,9.77
2019-02-22T06:53:15.098Z,9.77
2019-02-22T06:54:15.020Z,9.73
2019-02-22T06:55:14.931Z,9.87
2019-02-22T06:56:14.849Z,9.87
2019-02-22T06:57:14.767Z,9.82
2019-02-22T06:58:14.683Z,9.73
2019-02-22T06:59:14.598Z,9.84
2019-02-22T07:00:14.517Z,9.82
2019-02-22T07:01:14.431Z,9.82
2019-02-22T07:02:14.349Z,9.80
2019-02-22T07:03:14.275Z,9.89
2019-02-22T07:04:14.182Z,9.86
2019-02-22T07:05:14.098Z,9.80
2019-02-22T07:06:14.016Z,9.82
2019-02-22T07:07:13.940Z,9.84
2019-02-22T07:08:13.849Z,9.76
2019-02-22T07:09:13.765Z,9.82
2019-02-22T07:10:13.687Z,9.84
2019-02-22T07:11:13.597Z,9.79
2019-02-22T07:12:13.511Z,9.83
2019-02-22T07:13:13.430Z,9.84
2019-02-22T07:14:13.348Z,9.89
2019-02-22T07:15:13.268Z,9.84
2019-02-22T07:16:13.181Z,9.91
2019-02-22T07:17:13.096Z,9.86
2019-02-22T07:18:13.014Z,9.91
2019-02-22T07:19:12.931Z,9.86
2019-02-22T07:20:12.893Z,9.89
2019-02-22T07:21:12.767Z,9.84
2019-02-22T07:22:12.676Z,9.87
2019-02-22T07:23:12.597Z,9.83
2019-02-22T07:24:12.527Z,9.87
2019-02-22T07:25:12.479Z,9.82
2019-02-22T07:26:12.343Z,9.86
2019-02-22T07:27:12.288Z,9.92
2019-02-22T07:28:12.190Z,9.91
2019-02-22T07:29:12.096Z,9.84
2019-02-22T07:30:12.016Z,9.94
2019-02-22T07:31:11.934Z,9.89
2019-02-22T07:32:11.843Z,9.84
2019-02-22T07:33:11.777Z,9.94
2019-02-22T07:34:11.762Z,9.87
2019-02-22T07:35:14.051Z,9.94
2019-02-22T07:36:11.511Z,9.87
2019-02-22T07:37:11.429Z,9.91
2019-02-22T07:38:11.344Z,9.98
2019-02-22T07:39:11.262Z,9.95
2019-02-22T07:40:11.178Z,9.99
2019-02-22T07:41:11.096Z,10.09
2019-02-22T07:42:11.015Z,9.98
2019-02-22T07:43:10.928Z,10.02
2019-02-22T07:44:10.847Z,9.98
2019-02-22T07:45:10.759Z,10.07
2019-02-22T07:46:10.702Z,10.01
2019-02-22T07:47:10.596Z,10.05
2019-02-22T07:48:10.510Z,10.12
2019-02-22T07:49:10.432Z,10.07
2019-02-22T07:50:10.345Z,10.07
2019-02-22T07:51:10.262Z,10.12
2019-02-22T07:52:10.184Z,10.10
2019-02-22T07:53:10.116Z,10.15
2019-02-22T07:54:10.013Z,10.01
2019-02-22T07:55:09.932Z,10.09
2019-02-22T07:56:09.844Z,10.10
2019-02-22T07:57:09.763Z,10.09
2019-02-22T07:58:09.682Z,10.10
2019-02-22T07:59:09.600Z,10.20
2019-02-22T08:00:09.513Z,10.19
2019-02-22T08:01:09.431Z,10.25
2019-02-22T08:02:09.347Z,10.15
2019-02-22T08:03:09.265Z,10.17
2019-02-22T08:04:09.181Z,10.22
2019-02-22T08:05:09.329Z,10.22
2019-02-22T08:06:09.016Z,10.22
2019-02-22T08:07:08.933Z,10.17
2019-02-22T08:08:08.848Z,10.19
2019-02-22T08:09:08.766Z,10.22
2019-02-22T08:10:08.689Z,10.22
2019-02-22T08:11:08.600Z,10.25
2019-02-22T08:12:08.515Z,10.16
2019-02-22T08:13:19.225Z,10.22
2019-02-22T08:14:08.350Z,10.25
2019-02-22T08:15:08.270Z,10.22
2019-02-22T08:16:08.186Z,10.31
2019-02-22T08:17:08.108Z,10.25
2019-02-22T08:18:08.019Z,10.28
2019-02-22T08:19:07.938Z,10.35
2019-02-22T08:20:07.852Z,10.35
2019-02-22T08:21:07.771Z,10.28
2019-02-22T08:22:07.687Z,10.37
2019-02-22T08:23:07.606Z,10.34
2019-02-22T08:24:07.523Z,10.30
2019-02-22T08:25:07.441Z,10.34
2019-02-22T08:26:07.356Z,10.35
2019-02-22T08:27:07.316Z,10.46
2019-02-22T08:28:07.185Z,10.46
2019-02-22T08:29:07.118Z,10.46
2019-02-22T08:30:07.025Z,10.51
2019-02-22T08:31:06.946Z,10.54
2019-02-22T08:32:06.860Z,10.60
2019-02-22T08:33:06.785Z,10.60
2019-02-22T08:34:06.695Z,10.64
2019-02-22T08:35:06.614Z,10.71
2019-02-22T08:36:06.531Z,10.68
2019-02-22T08:37:06.447Z,10.72
2019-02-22T08:38:06.367Z,10.72
2019-02-22T08:39:06.286Z,10.68
2019-02-22T08:40:06.201Z,10.72
2019-02-22T08:41:06.118Z,10.68
2019-02-22T08:42:06.038Z,10.61
2019-02-22T08:43:05.954Z,10.60
2019-02-22T08:44:05.871Z,10.57
2019-02-22T08:45:05.790Z,10.59
2019-02-22T08:46:05.710Z,10.69
2019-02-22T08:47:05.626Z,10.64
2019-02-22T08:48:05.542Z,10.60
2019-02-22T08:49:05.461Z,10.57
2019-02-22T08:50:05.381Z,10.56
2019-02-22T08:51:05.299Z,10.59
2019-02-22T08:52:05.212Z,10.61
2019-02-22T08:53:05.130Z,10.57
2019-02-22T08:54:05.047Z,10.64
2019-02-22T08:55:04.966Z,10.69
2019-02-22T08:56:04.887Z,10.75
2019-02-22T08:57:04.800Z,10.64
2019-02-22T08:58:04.721Z,10.71
2019-02-22T08:59:04.639Z,10.74
2019-02-22T09:00:04.555Z,10.69
2019-02-22T09:01:04.466Z,10.71
2019-02-22T09:02:04.390Z,10.67
2019-02-22T09:03:04.309Z,10.75
2019-02-22T09:04:04.232Z,10.72
2019-02-22T09:05:04.144Z,10.74
2019-02-22T09:06:04.064Z,10.71
2019-02-22T09:07:03.981Z,10.76
2019-02-22T09:08:03.895Z,10.69
2019-02-22T09:09:03.812Z,10.68
2019-02-22T09:10:03.731Z,10.69
2019-02-22T09:11:03.650Z,10.69
2019-02-22T09:12:03.570Z,10.71
2019-02-22T09:13:03.483Z,10.75
2019-02-22T09:14:03.401Z,10.75
2019-02-22T09:15:03.319Z,10.78
2019-02-22T09:16:03.236Z,10.75
2019-02-22T09:17:03.175Z,10.75
2019-02-22T09:18:03.071Z,10.79
2019-02-22T09:19:02.988Z,10.84
2019-02-22T09:20:02.914Z,10.86
2019-02-22T09:21:02.823Z,10.87
2019-02-22T09:22:02.746Z,10.84
2019-02-22T09:23:02.661Z,11.00
2019-02-22T09:24:02.573Z,10.81
2019-02-22T09:25:02.493Z,10.96
2019-02-22T09:26:02.412Z,11.00
2019-02-22T09:27:02.331Z,11.00
2019-02-22T09:28:02.247Z,11.11
2019-02-22T09:29:02.167Z,11.08
2019-02-22T09:30:02.084Z,11.14
2019-02-22T09:31:02.007Z,11.11
2019-02-22T09:32:01.919Z,11.14
2019-02-22T09:33:01.838Z,11.17
2019-02-22T09:34:01.759Z,11.17
2019-02-22T09:35:01.678Z,11.30
2019-02-22T09:36:01.595Z,11.25
2019-02-22T09:37:01.513Z,11.19
2019-02-22T09:38:01.431Z,11.22
2019-02-22T09:39:01.349Z,11.18
2019-02-22T09:40:01.271Z,11.23
2019-02-22T09:41:01.221Z,11.23
2019-02-22T09:42:01.107Z,11.26
2019-02-22T09:43:01.025Z,11.25
2019-02-22T09:44:00.941Z,11.22
2019-02-22T09:45:00.865Z,11.19
2019-02-22T09:46:00.833Z,11.15
2019-02-22T09:47:00.698Z,11.18
2019-02-22T09:48:00.615Z,11.22
2019-02-22T09:49:00.536Z,11.23
2019-02-22T09:50:00.452Z,11.22
2019-02-22T09:51:00.374Z,11.17
2019-02-22T09:52:00.290Z,11.15
2019-02-22T09:53:00.207Z,11.22
2019-02-22T09:54:00.126Z,11.15
2019-02-22T09:55:00.043Z,11.07
2019-02-22T09:55:59.964Z,11.12
2019-02-22T09:57:01.926Z,11.15
2019-02-22T09:57:59.799Z,11.17
2019-02-22T09:58:59.718Z,11.19
2019-02-22T09:59:59.635Z,11.18
2019-02-22T10:00:59.553Z,11.17
2019-02-22T10:01:59.471Z,11.22
2019-02-22T10:02:59.393Z,11.18
2019-02-22T10:03:59.307Z,11.22
2019-02-22T10:04:59.230Z,11.26
2019-02-22T10:05:59.144Z,11.25
2019-02-22T10:06:59.067Z,11.27
2019-02-22T10:07:58.981Z,11.29
2019-02-22T10:08:58.901Z,11.22
2019-02-22T10:09:58.820Z,11.18
2019-02-22T10:10:58.741Z,11.18
2019-02-22T10:11:58.656Z,11.25
2019-02-22T10:12:58.579Z,11.26
2019-02-22T10:14:06.290Z,11.25
2019-02-22T10:14:58.410Z,11.26
2019-02-22T10:15:58.335Z,11.19
2019-02-22T10:16:58.248Z,11.23
2019-02-22T10:17:58.167Z,11.27
2019-02-22T10:18:58.086Z,11.35
2019-02-22T10:19:58.004Z,11.30
2019-02-22T10:20:57.923Z,11.45
2019-02-22T10:21:57.864Z,11.40
2019-02-22T10:22:57.761Z,11.40
2019-02-22T10:23:57.676Z,11.40
2019-02-22T10:24:57.596Z,11.44
2019-02-22T10:25:57.515Z,11.40
2019-02-22T10:28:31.968Z,11.59
2019-02-22T10:29:31.856Z,11.51
2019-02-22T10:31:36.255Z,11.50
2019-02-22T10:32:36.135Z,11.41
2019-02-22T10:34:42.949Z,11.48
2019-02-22T10:35:42.870Z,11.48
2019-02-22T10:37:48.262Z,11.48
2019-02-22T10:38:48.117Z,11.40
2019-02-22T10:40:55.115Z,11.47
2019-02-22T10:41:54.801Z,11.45
2019-02-22T10:42:54.697Z,11.52
2019-02-22T10:43:54.626Z,11.45
2019-02-22T10:44:54.685Z,11.60
2019-02-22T10:45:54.440Z,11.59
2019-02-22T10:46:54.362Z,11.63
2019-02-22T10:47:54.277Z,11.66
2019-02-22T10:48:54.208Z,11.75
2019-02-22T10:49:54.125Z,11.77
2019-02-22T10:50:54.036Z,11.81
2019-02-22T10:51:53.956Z,11.87
2019-02-22T10:53:01.700Z,11.88
2019-02-22T10:53:53.796Z,11.94
2019-02-22T10:54:53.716Z,12.02
2019-02-22T10:55:53.644Z,12.03
2019-02-22T10:56:53.558Z,12.07
2019-02-22T10:57:53.476Z,12.09
2019-02-22T10:58:53.396Z,12.09
2019-02-22T10:59:53.314Z,12.15
2019-02-22T11:00:53.229Z,12.27
2019-02-22T11:01:53.154Z,12.25
2019-02-22T11:02:53.073Z,12.25
2019-02-22T11:03:53.001Z,12.21
2019-02-22T11:04:52.916Z,12.28
2019-02-22T11:05:52.839Z,12.24
2019-02-22T11:06:52.754Z,12.25
2019-02-22T11:07:52.687Z,12.25
2019-02-22T11:08:52.593Z,12.27
2019-02-22T11:09:52.519Z,12.36
2019-02-22T11:10:52.433Z,12.28
2019-02-22T11:11:52.359Z,12.29
2019-02-22T11:12:52.280Z,12.39
2019-02-22T11:13:52.200Z,12.31
2019-02-22T11:14:52.122Z,12.40
2019-02-22T11:15:52.038Z,12.43
2019-02-22T11:16:51.962Z,12.36
2019-02-22T11:17:51.883Z,12.35
2019-02-22T11:18:51.804Z,12.32
2019-02-22T11:19:51.723Z,12.40
2019-02-22T11:20:51.645Z,12.27
2019-02-22T11:21:51.559Z,12.22
2019-02-22T11:22:51.483Z,12.20
2019-02-22T11:23:51.402Z,12.22
2019-02-22T11:24:51.324Z,12.17
2019-02-22T11:25:51.246Z,12.15
2019-02-22T11:26:51.166Z,12.03
2019-02-22T11:27:51.091Z,12.09
2019-02-22T11:28:51.006Z,11.99
2019-02-22T11:29:50.933Z,12.03
2019-02-22T11:30:50.845Z,11.95
2019-02-22T11:31:50.764Z,11.91
2019-02-22T11:32:50.685Z,12.00
2019-02-22T11:33:50.601Z,11.94
2019-02-22T11:34:50.522Z,11.88
2019-02-22T11:35:50.443Z,11.90
2019-02-22T11:36:50.374Z,11.94
2019-02-22T11:37:50.286Z,11.77
2019-02-22T11:38:50.203Z,11.81
2019-02-22T11:39:50.118Z,11.83
2019-02-22T11:40:50.043Z,11.81
2019-02-22T11:41:49.960Z,11.81
2019-02-22T11:42:49.877Z,11.80
2019-02-22T11:43:49.795Z,11.83
2019-02-22T11:44:49.715Z,11.83
2019-02-22T11:45:50.037Z,11.97
2019-02-22T11:46:49.553Z,11.95
2019-02-22T11:47:49.474Z,11.99
2019-02-22T11:48:49.392Z,11.90
2019-02-22T11:49:49.312Z,11.99
2019-02-22T11:50:49.227Z,12.06
2019-02-22T11:51:49.149Z,12.04
2019-02-22T11:52:49.068Z,12.10
2019-02-22T11:53:48.989Z,12.09
2019-02-22T11:54:48.907Z,12.18
2019-02-22T11:55:48.827Z,12.21
2019-02-22T11:56:48.745Z,12.27
2019-02-22T11:57:48.669Z,12.25
2019-02-22T11:58:48.587Z,12.29
2019-02-22T11:59:48.511Z,12.39
2019-02-22T12:00:48.424Z,12.29
2019-02-22T12:01:48.371Z,12.50
2019-02-22T12:02:48.267Z,12.42
2019-02-22T12:03:48.187Z,12.40
2019-02-22T12:04:48.105Z,12.25
2019-02-22T12:05:48.093Z,12.21
2019-02-22T12:06:48.102Z,12.15
2019-02-22T12:07:48.200Z,12.20
2019-02-22T12:08:47.787Z,12.12
2019-02-22T12:09:47.704Z,12.00
2019-02-22T12:10:47.622Z,11.94
2019-02-22T12:11:47.537Z,12.00
2019-02-22T12:12:47.460Z,11.91
2019-02-22T12:13:47.382Z,11.99
2019-02-22T12:14:51.951Z,11.97
2019-02-22T12:15:47.217Z,11.94
2019-02-22T12:16:47.141Z,11.91
2019-02-22T12:17:47.061Z,11.97
2019-02-22T12:18:47.232Z,12.02
2019-02-22T12:19:47.068Z,11.95
2019-02-22T12:20:46.818Z,11.94
2019-02-22T12:21:46.742Z,11.95
2019-02-22T12:22:46.656Z,11.83
2019-02-22T12:23:46.575Z,11.95
2019-02-22T12:24:46.494Z,11.94
2019-02-22T12:25:46.409Z,11.95
2019-02-22T12:26:46.330Z,11.95
2019-02-22T12:27:46.257Z,12.00
2019-02-22T12:28:46.171Z,11.94
2019-02-22T12:29:46.117Z,12.00
2019-02-22T12:30:46.014Z,12.04
2019-02-22T12:31:45.929Z,12.02
2019-02-22T12:32:45.846Z,12.00
2019-02-22T12:33:45.765Z,12.06
2019-02-22T12:34:45.687Z,12.02
2019-02-22T12:35:45.605Z,12.02
2019-02-22T12:36:45.526Z,12.10
2019-02-22T12:37:45.445Z,12.21
2019-02-22T12:38:45.365Z,12.18
2019-02-22T12:39:45.283Z,12.22
2019-02-22T12:40:45.205Z,12.40
2019-02-22T12:41:45.124Z,12.35
2019-02-22T12:42:45.046Z,12.35
2019-02-22T12:43:44.958Z,12.49
2019-02-22T12:44:44.883Z,12.53
2019-02-22T12:45:44.833Z,12.50
2019-02-22T12:46:44.725Z,12.46
2019-02-22T12:47:44.643Z,12.65
2019-02-22T12:48:44.565Z,12.61
2019-02-22T12:49:44.482Z,12.64
2019-02-22T12:50:44.406Z,12.70
2019-02-22T12:51:44.326Z,12.72
2019-02-22T12:52:44.252Z,12.80
2019-02-22T12:53:44.165Z,12.87
2019-02-22T12:54:44.087Z,12.94
2019-02-22T12:55:44.010Z,12.91
2019-02-22T12:56:56.626Z,12.91
2019-02-22T12:57:43.849Z,12.91
2019-02-22T12:58:43.768Z,12.86
2019-02-22T12:59:43.694Z,12.83
2019-02-22T13:00:43.614Z,12.85
2019-02-22T13:01:43.535Z,12.91
2019-02-22T13:02:43.453Z,12.80
2019-02-22T13:03:43.378Z,12.73
2019-02-22T13:04:43.297Z,12.83
2019-02-22T13:05:43.218Z,12.82
2019-02-22T13:06:43.139Z,12.78
2019-02-22T13:07:43.062Z,12.80
2019-02-22T13:08:42.979Z,12.83
2019-02-22T13:09:42.915Z,12.86
2019-02-22T13:10:42.825Z,12.94
2019-02-22T13:11:42.742Z,12.94
2019-02-22T13:12:42.669Z,13.31
2019-02-22T13:13:42.593Z,13.54
2019-02-22T13:14:42.507Z,13.77
2019-02-22T13:15:42.432Z,13.83
2019-02-22T13:16:42.355Z,13.96
2019-02-22T13:17:42.266Z,14.20
2019-02-22T13:18:42.193Z,14.30
2019-02-22T13:19:42.116Z,14.50
2019-02-22T13:20:42.039Z,14.73
2019-02-22T13:21:41.959Z,14.91